Terminal Aerodrome Forecast
Issued by NWS

Home | Current Version | Previous Version | Text Only | Print | Product List | Glossary On
Versions: 1 2 3 4 5 6 7 8 9 10 11 12 13 14
708
FTUS43 KFGF 041120
TAFTVF
TAF
KTVF 041120Z 0412/0512 15012KT P6SM OVC008
     FM041300 16012KT 3SM -SN OVC005
     FM041600 20011KT P6SM OVC008
     FM041900 23011KT P6SM BKN010 OVC025
     FM050100 25009KT P6SM BKN025
     FM050400 21006KT P6SM BKN045=

USA.gov is the U.S. government's official web portal to all federal, state and local government web resources and services.